createdAt,value
2022-08-03T00:00:34.619Z,3.42
2022-08-03T00:02:36.381Z,3.38
2022-08-03T00:04:38.119Z,3.60
2022-08-03T00:06:40.499Z,3.60
2022-08-03T00:08:42.265Z,3.30
2022-08-03T00:10:44.068Z,3.75
2022-08-03T00:12:45.802Z,3.30
2022-08-03T00:14:47.439Z,3.50
2022-08-03T00:16:49.695Z,2.95
2022-08-03T00:18:51.647Z,3.58
2022-08-03T00:20:53.482Z,2.95
2022-08-03T00:22:55.198Z,3.55
2022-08-03T00:24:56.828Z,3.65
2022-08-03T00:26:58.937Z,3.63
2022-08-03T00:29:00.709Z,3.25
2022-08-03T00:31:02.390Z,3.83
2022-08-03T00:33:05.407Z,3.08
2022-08-03T00:35:14.773Z,3.60
2022-08-03T00:37:41.430Z,3.50
2022-08-03T00:39:45.954Z,3.72
2022-08-03T00:41:47.624Z,3.80
2022-08-03T00:43:49.285Z,4.07
2022-08-03T00:45:51.078Z,3.13
2022-08-03T00:47:52.963Z,3.60
2022-08-03T00:49:54.744Z,3.83
2022-08-03T00:51:56.531Z,3.78
2022-08-03T00:53:58.435Z,3.58
2022-08-03T00:56:00.146Z,3.60
2022-08-03T00:58:06.609Z,3.60
2022-08-03T01:00:10.502Z,3.72
2022-08-03T01:02:12.189Z,3.53
2022-08-03T01:04:13.925Z,3.60
2022-08-03T01:06:18.763Z,4.10
2022-08-03T01:08:43.498Z,3.97
2022-08-03T01:11:23.827Z,3.88
2022-08-03T01:14:01.103Z,4.03
2022-08-03T01:16:08.626Z,3.72
2022-08-03T01:18:17.421Z,4.30
2022-08-03T01:20:22.395Z,3.70
2022-08-03T01:22:51.567Z,3.30
2022-08-03T01:25:31.411Z,3.78
2022-08-03T01:27:54.365Z,5.15
2022-08-03T01:30:10.247Z,4.15
2022-08-03T01:33:03.142Z,4.13
2022-08-03T01:34:53.123Z,3.80
2022-08-03T01:36:57.644Z,3.67
2022-08-03T01:39:02.506Z,3.80
2022-08-03T01:41:18.918Z,3.88
2022-08-03T01:44:26.702Z,3.80
2022-08-03T01:45:48.308Z,3.65
2022-08-03T01:47:50.704Z,4.13
2022-08-03T01:49:54.495Z,3.80
2022-08-03T01:52:05.029Z,3.20
2022-08-03T01:54:10.211Z,4.05
2022-08-03T01:56:14.120Z,3.90
2022-08-03T01:58:18.822Z,3.75
2022-08-03T02:00:20.626Z,4.10
2022-08-03T02:02:33.870Z,4.00
2022-08-03T02:04:39.241Z,3.78
2022-08-03T02:07:01.728Z,3.97
2022-08-03T02:09:06.666Z,3.97
2022-08-03T02:11:08.758Z,3.97
2022-08-03T02:13:11.316Z,3.63
2022-08-03T02:15:16.093Z,3.97
2022-08-03T02:17:39.449Z,3.60
2022-08-03T02:19:43.182Z,3.63
2022-08-03T02:21:57.250Z,3.50
2022-08-03T02:24:04.848Z,3.63
2022-08-03T02:26:12.676Z,3.60
2022-08-03T02:28:19.684Z,3.78
2022-08-03T02:30:22.008Z,3.67
2022-08-03T02:32:34.518Z,3.45
2022-08-03T02:34:37.321Z,3.97
2022-08-03T02:36:41.017Z,3.67
2022-08-03T02:38:44.423Z,3.95
2022-08-03T02:40:46.502Z,3.63
2022-08-03T02:42:51.563Z,3.40
2022-08-03T02:44:55.432Z,3.55
2022-08-03T02:47:02.348Z,3.70
2022-08-03T02:49:49.785Z,3.70
2022-08-03T02:51:30.056Z,3.85
2022-08-03T02:53:33.259Z,3.55
2022-08-03T02:55:35.977Z,3.47
2022-08-03T02:57:46.681Z,3.53
2022-08-03T02:59:49.646Z,3.50
2022-08-03T03:01:54.053Z,3.92
2022-08-03T03:03:57.652Z,3.65
2022-08-03T03:05:59.948Z,4.07
2022-08-03T03:08:02.600Z,3.70
2022-08-03T03:10:05.240Z,3.67
2022-08-03T03:12:09.978Z,3.63
2022-08-03T03:14:13.554Z,3.58
2022-08-03T03:16:16.260Z,4.05
2022-08-03T03:18:22.255Z,3.45
2022-08-03T03:20:29.317Z,3.70
2022-08-03T03:22:34.389Z,3.50
2022-08-03T03:24:37.663Z,4.10
2022-08-03T03:26:42.449Z,3.83
2022-08-03T03:28:44.733Z,3.83
2022-08-03T03:30:52.679Z,3.80
2022-08-03T03:32:55.525Z,3.35
2022-08-03T03:34:59.317Z,3.95
2022-08-03T03:37:01.678Z,4.03
2022-08-03T03:39:15.389Z,4.05
2022-08-03T03:41:18.072Z,3.60
2022-08-03T03:43:24.261Z,3.80
2022-08-03T03:45:27.506Z,4.05
2022-08-03T03:47:32.708Z,3.90
2022-08-03T03:49:34.971Z,4.05
2022-08-03T03:51:36.785Z,3.53
2022-08-03T03:53:38.638Z,3.85
2022-08-03T03:56:01.643Z,4.47
2022-08-03T03:58:04.243Z,3.53
2022-08-03T04:00:07.070Z,3.40
2022-08-03T04:02:10.571Z,4.00
2022-08-03T04:04:30.968Z,4.30
2022-08-03T04:06:51.433Z,4.53
2022-08-03T04:09:11.664Z,4.22
2022-08-03T04:11:30.132Z,4.18
2022-08-03T04:13:37.993Z,4.10
2022-08-03T04:15:41.493Z,3.75
2022-08-03T04:17:44.542Z,4.20
2022-08-03T04:19:51.435Z,4.03
2022-08-03T04:21:57.301Z,3.92
2022-08-03T04:24:03.625Z,4.20
2022-08-03T04:26:09.998Z,4.00
2022-08-03T04:28:30.343Z,4.20
2022-08-03T04:30:37.800Z,4.53
2022-08-03T04:32:45.499Z,4.90
2022-08-03T04:34:47.779Z,4.10
2022-08-03T04:36:53.215Z,4.30
2022-08-03T04:39:10.825Z,4.35
2022-08-03T04:41:13.555Z,4.20
2022-08-03T04:43:18.540Z,3.67
2022-08-03T04:45:21.361Z,4.00
2022-08-03T04:47:23.239Z,4.32
2022-08-03T04:49:25.653Z,3.92
2022-08-03T04:51:27.982Z,4.10
2022-08-03T04:53:29.777Z,3.95
2022-08-03T04:55:33.203Z,4.47
2022-08-03T04:57:34.980Z,4.00
2022-08-03T04:59:39.084Z,4.10
2022-08-03T05:01:42.672Z,4.32
2022-08-03T05:03:44.393Z,4.15
2022-08-03T05:05:50.006Z,4.22
2022-08-03T05:07:53.093Z,4.10
2022-08-03T05:10:01.651Z,4.32
2022-08-03T05:12:06.453Z,4.03
2022-08-03T05:14:08.136Z,4.70
2022-08-03T05:16:09.904Z,4.45
2022-08-03T05:18:14.194Z,4.95
2022-08-03T05:20:18.114Z,4.47
2022-08-03T05:22:21.506Z,4.00
2022-08-03T05:24:23.397Z,4.10
2022-08-03T05:26:25.285Z,4.20
2022-08-03T05:28:28.452Z,3.55
2022-08-03T05:30:33.422Z,4.03
2022-08-03T05:32:35.962Z,4.30
2022-08-03T05:34:37.769Z,4.15
2022-08-03T05:36:39.739Z,4.45
2022-08-03T05:38:41.445Z,3.70
2022-08-03T05:40:56.840Z,4.57
2022-08-03T05:42:59.925Z,4.38
2022-08-03T05:45:13.297Z,3.70
2022-08-03T05:47:15.079Z,3.75
2022-08-03T05:49:16.831Z,3.90
2022-08-03T05:51:18.612Z,3.60
2022-08-03T05:53:20.288Z,3.45
2022-08-03T05:55:21.912Z,3.78
2022-08-03T05:57:23.665Z,3.75
2022-08-03T05:59:38.121Z,3.70
2022-08-03T06:01:40.367Z,3.65
2022-08-03T06:03:42.347Z,3.88
2022-08-03T06:05:55.565Z,3.90
2022-08-03T06:08:03.616Z,3.65
2022-08-03T06:10:36.814Z,3.70
2022-08-03T06:12:28.042Z,4.00
2022-08-03T06:14:29.749Z,3.95
2022-08-03T06:16:31.617Z,4.40
2022-08-03T06:18:33.381Z,4.25
2022-08-03T06:20:35.085Z,4.43
2022-08-03T06:22:36.982Z,4.00
2022-08-03T06:24:53.779Z,4.43
2022-08-03T06:26:56.704Z,3.97
2022-08-03T06:28:58.433Z,3.63
2022-08-03T06:31:01.461Z,3.35
2022-08-03T06:33:03.112Z,3.55
2022-08-03T06:35:08.645Z,4.00
2022-08-03T06:37:10.309Z,3.80
2022-08-03T06:39:13.154Z,3.70
2022-08-03T06:41:14.944Z,3.50
2022-08-03T06:43:16.587Z,3.85
2022-08-03T06:45:18.277Z,3.20
2022-08-03T06:47:19.944Z,3.17
2022-08-03T06:49:21.715Z,3.35
2022-08-03T06:52:04.060Z,3.00
2022-08-03T06:53:45.373Z,3.03
2022-08-03T06:55:51.145Z,3.40
2022-08-03T06:58:00.113Z,3.10
2022-08-03T07:00:11.881Z,3.58
2022-08-03T07:02:19.093Z,3.45
2022-08-03T07:04:21.269Z,3.22
2022-08-03T07:06:22.969Z,3.00
2022-08-03T07:08:34.263Z,3.47
2022-08-03T07:10:36.698Z,3.42
2022-08-03T07:12:55.597Z,3.55
2022-08-03T07:15:01.832Z,3.47
2022-08-03T07:17:04.617Z,3.20
2022-08-03T07:19:13.569Z,3.40
2022-08-03T07:21:16.803Z,3.55
2022-08-03T07:23:19.058Z,3.45
2022-08-03T07:25:21.419Z,3.63
2022-08-03T07:27:23.219Z,3.45
2022-08-03T07:29:25.129Z,3.65
2022-08-03T07:31:27.209Z,3.20
2022-08-03T07:33:35.806Z,3.03
2022-08-03T07:35:37.544Z,3.40
2022-08-03T07:37:39.233Z,3.53
2022-08-03T07:39:40.888Z,3.40
2022-08-03T07:41:42.513Z,3.22
2022-08-03T07:43:44.198Z,3.20
2022-08-03T07:45:45.878Z,2.92
2022-08-03T07:47:53.245Z,3.55
2022-08-03T07:49:56.169Z,3.38
2022-08-03T07:52:16.616Z,3.17
2022-08-03T07:54:18.533Z,3.40
2022-08-03T07:56:20.278Z,3.83
2022-08-03T07:58:24.316Z,3.78
2022-08-03T08:00:26.080Z,3.30
2022-08-03T08:02:27.761Z,2.88
2022-08-03T08:04:29.393Z,2.92
2022-08-03T08:06:32.771Z,2.70
2022-08-03T08:08:34.474Z,2.80
2022-08-03T08:10:36.669Z,2.95
2022-08-03T08:12:39.376Z,3.03
2022-08-03T08:14:41.971Z,3.00
2022-08-03T08:16:43.638Z,2.70
2022-08-03T08:18:45.288Z,3.22
2022-08-03T08:20:46.993Z,3.08
2022-08-03T08:22:48.866Z,3.03
2022-08-03T08:24:52.001Z,3.97
2022-08-03T08:26:54.136Z,3.95
2022-08-03T08:28:55.769Z,3.67
2022-08-03T08:30:57.401Z,3.92
2022-08-03T08:32:59.378Z,3.05
2022-08-03T08:35:01.067Z,3.33
2022-08-03T08:37:02.805Z,3.65
2022-08-03T08:39:04.532Z,5.80
2022-08-03T08:41:06.278Z,3.88
2022-08-03T08:43:07.934Z,3.70
2022-08-03T08:45:11.990Z,3.88
2022-08-03T08:47:14.665Z,3.20
2022-08-03T08:49:18.773Z,3.80
2022-08-03T08:51:22.223Z,3.15
2022-08-03T08:53:29.229Z,2.63
2022-08-03T08:55:59.399Z,2.92
2022-08-03T08:58:02.005Z,3.20
2022-08-03T09:00:10.556Z,2.90
2022-08-03T09:02:12.258Z,2.97
2022-08-03T09:04:14.177Z,2.88
2022-08-03T09:06:16.553Z,3.30
2022-08-03T09:08:18.518Z,3.80
2022-08-03T09:10:22.012Z,2.90
2022-08-03T09:12:42.273Z,4.03
2022-08-03T09:14:55.141Z,3.33
2022-08-03T09:17:05.166Z,3.50
2022-08-03T09:19:14.270Z,2.92
2022-08-03T09:21:35.111Z,3.60
2022-08-03T09:24:05.412Z,3.83
2022-08-03T09:26:09.135Z,2.80
2022-08-03T09:28:52.705Z,3.05
2022-08-03T09:30:57.597Z,3.35
2022-08-03T09:33:05.063Z,2.70
2022-08-03T09:35:09.348Z,3.20
2022-08-03T09:37:16.420Z,2.85
2022-08-03T09:39:41.180Z,2.90
2022-08-03T09:41:46.547Z,2.90
2022-08-03T09:43:48.285Z,2.80
2022-08-03T09:45:50.290Z,2.78
2022-08-03T09:47:52.070Z,2.70
2022-08-03T09:50:02.308Z,2.67
2022-08-03T09:52:38.765Z,2.55
2022-08-03T09:54:41.736Z,2.67
2022-08-03T09:56:47.066Z,2.50
2022-08-03T09:58:48.873Z,2.97
2022-08-03T10:01:01.919Z,2.60
2022-08-03T10:03:05.901Z,2.80
2022-08-03T10:05:09.557Z,2.25
2022-08-03T10:07:11.595Z,2.80
2022-08-03T10:09:15.636Z,2.70
2022-08-03T10:11:31.093Z,2.28
2022-08-03T10:13:33.042Z,2.53
2022-08-03T10:16:23.785Z,2.45
2022-08-03T10:17:56.460Z,2.50
2022-08-03T10:20:00.187Z,2.22
2022-08-03T10:22:07.667Z,2.13
2022-08-03T10:24:10.890Z,2.10
2022-08-03T10:26:19.254Z,2.28
2022-08-03T10:28:22.182Z,2.03
2022-08-03T10:30:27.878Z,2.13
2022-08-03T10:32:35.976Z,2.20
2022-08-03T10:34:44.407Z,1.88
2022-08-03T10:36:47.679Z,2.00
2022-08-03T10:38:53.290Z,1.85
2022-08-03T10:40:59.051Z,1.98
2022-08-03T10:43:10.136Z,1.80
2022-08-03T10:45:25.507Z,1.73
2022-08-03T10:47:27.685Z,1.80
2022-08-03T10:49:33.727Z,1.95
2022-08-03T10:51:37.135Z,2.00
2022-08-03T10:53:47.694Z,1.60
2022-08-03T10:56:14.405Z,1.98
2022-08-03T10:58:57.159Z,1.92
2022-08-03T11:03:23.515Z,1.65
2022-08-03T11:05:27.556Z,2.10
2022-08-03T11:07:29.194Z,1.90
2022-08-03T11:09:42.421Z,1.50
2022-08-03T11:11:45.979Z,1.70
2022-08-03T11:14:05.855Z,1.75
2022-08-03T11:16:22.277Z,1.90
2022-08-03T11:18:27.063Z,1.60
2022-08-03T11:20:50.570Z,1.83
2022-08-03T11:22:54.622Z,2.00
2022-08-03T11:24:57.385Z,1.85
2022-08-03T11:27:14.400Z,1.75
2022-08-03T11:29:28.115Z,1.80
2022-08-03T11:31:49.415Z,1.90
2022-08-03T11:34:12.502Z,1.98
2022-08-03T11:36:32.279Z,2.00
2022-08-03T11:38:34.238Z,2.33
2022-08-03T11:40:46.260Z,2.08
2022-08-03T11:42:48.380Z,1.90
2022-08-03T11:45:00.533Z,2.25
2022-08-03T11:47:02.214Z,2.08
2022-08-03T11:49:10.471Z,1.90
2022-08-03T11:51:26.934Z,1.88
2022-08-03T11:53:28.805Z,1.67
2022-08-03T11:55:32.135Z,1.92
2022-08-03T11:59:00.775Z,1.98
2022-08-03T11:59:57.301Z,2.20
2022-08-03T12:02:14.721Z,2.00
2022-08-03T12:04:16.532Z,2.60
2022-08-03T12:06:19.175Z,2.38
2022-08-03T12:08:26.926Z,2.13
2022-08-03T12:10:29.295Z,2.33
2022-08-03T12:12:31.079Z,2.97
2022-08-03T12:14:50.076Z,2.30
2022-08-03T12:16:53.683Z,2.10
2022-08-03T12:19:01.497Z,2.55
2022-08-03T12:21:08.890Z,2.00
2022-08-03T12:23:11.593Z,2.40
2022-08-03T12:25:38.562Z,2.35
2022-08-03T12:27:41.447Z,2.20
2022-08-03T12:29:43.132Z,2.10
2022-08-03T12:31:58.866Z,2.20
2022-08-03T12:34:06.710Z,2.20
2022-08-03T12:36:10.279Z,2.10
2022-08-03T12:38:13.042Z,2.45
2022-08-03T12:40:20.578Z,2.22
2022-08-03T12:42:31.354Z,2.30
2022-08-03T12:44:35.825Z,1.88
2022-08-03T12:46:42.707Z,2.10
2022-08-03T12:49:20.013Z,1.92
2022-08-03T12:51:21.804Z,2.00
2022-08-03T12:53:30.116Z,2.25
2022-08-03T12:55:57.786Z,2.30
2022-08-03T12:57:56.851Z,2.10
2022-08-03T13:00:21.564Z,2.15
2022-08-03T13:02:31.020Z,1.90
2022-08-03T13:04:36.010Z,2.05
2022-08-03T13:06:37.720Z,2.00
2022-08-03T13:08:39.435Z,1.80
2022-08-03T13:10:41.090Z,1.80
2022-08-03T13:12:50.255Z,1.80
2022-08-03T13:15:01.091Z,1.80
2022-08-03T13:17:03.055Z,2.05
2022-08-03T13:19:04.729Z,1.90
2022-08-03T13:21:08.370Z,2.25
2022-08-03T13:23:13.903Z,2.17
2022-08-03T13:25:24.184Z,1.80
2022-08-03T13:28:04.655Z,1.85
2022-08-03T13:29:47.952Z,1.88
2022-08-03T13:31:50.516Z,2.15
2022-08-03T13:33:53.006Z,1.77
2022-08-03T13:35:55.276Z,2.10
2022-08-03T13:37:57.005Z,1.70
2022-08-03T13:40:02.778Z,1.85
2022-08-03T13:42:05.475Z,1.90
2022-08-03T13:44:28.214Z,2.05
2022-08-03T13:46:28.858Z,1.92
2022-08-03T13:48:35.958Z,2.00
2022-08-03T13:50:42.927Z,1.80
2022-08-03T13:52:46.397Z,1.75
2022-08-03T13:54:48.126Z,1.80
2022-08-03T13:56:52.994Z,1.90
2022-08-03T13:58:55.391Z,2.10
2022-08-03T14:00:57.075Z,2.00
2022-08-03T14:03:06.498Z,2.10
2022-08-03T14:05:11.345Z,1.90
2022-08-03T14:07:14.812Z,2.00
2022-08-03T14:09:16.491Z,2.00
2022-08-03T14:11:19.007Z,2.22
2022-08-03T14:13:20.731Z,1.90
2022-08-03T14:15:22.662Z,2.40
2022-08-03T14:17:24.318Z,1.85
2022-08-03T14:19:26.342Z,1.88
2022-08-03T14:21:28.881Z,2.00
2022-08-03T14:23:30.635Z,1.70
2022-08-03T14:25:44.199Z,1.70
2022-08-03T14:27:53.119Z,1.90
2022-08-03T14:29:56.677Z,1.95
2022-08-03T14:32:11.269Z,1.75
2022-08-03T14:34:14.464Z,2.00
2022-08-03T14:36:16.982Z,1.83
2022-08-03T14:38:19.346Z,1.90
2022-08-03T14:40:21.517Z,1.90
2022-08-03T14:42:23.763Z,1.70
2022-08-03T14:44:25.453Z,1.83
2022-08-03T14:46:27.132Z,1.98
2022-08-03T14:50:29.597Z,1.75
2022-08-03T14:50:51.760Z,1.63
2022-08-03T14:52:53.639Z,1.77
2022-08-03T14:54:55.367Z,2.00
2022-08-03T14:56:57.738Z,1.63
2022-08-03T14:59:00.249Z,2.05
2022-08-03T15:01:02.073Z,1.73
2022-08-03T15:03:05.091Z,1.70
2022-08-03T15:05:07.543Z,1.77
2022-08-03T15:07:09.278Z,1.90
2022-08-03T15:09:23.521Z,2.10
2022-08-03T15:11:25.721Z,1.83
2022-08-03T15:13:27.838Z,1.85
2022-08-03T15:15:29.578Z,1.80
2022-08-03T15:17:31.229Z,1.67
2022-08-03T15:20:00.724Z,1.50
2022-08-03T15:21:56.227Z,1.60
2022-08-03T15:23:57.893Z,1.73
2022-08-03T15:26:27.969Z,1.67
2022-08-03T15:28:21.212Z,1.58
2022-08-03T15:30:22.856Z,1.55
2022-08-03T15:32:24.489Z,1.58
2022-08-03T15:34:26.173Z,2.28
2022-08-03T15:36:27.815Z,1.77
2022-08-03T15:38:29.529Z,1.80
2022-08-03T15:40:31.204Z,1.70
2022-08-03T15:42:33.997Z,1.83
2022-08-03T15:44:35.621Z,2.08
2022-08-03T15:46:37.399Z,1.90
2022-08-03T15:48:40.067Z,1.60
2022-08-03T15:50:41.770Z,1.63
2022-08-03T15:52:45.495Z,1.80
2022-08-03T15:54:47.161Z,1.65
2022-08-03T15:56:48.819Z,2.00
2022-08-03T15:59:03.834Z,2.17
2022-08-03T16:01:16.394Z,1.60
2022-08-03T16:03:21.685Z,2.17
2022-08-03T16:05:23.358Z,1.83
2022-08-03T16:08:02.961Z,2.03
2022-08-03T16:10:05.496Z,1.77
2022-08-03T16:12:15.371Z,1.92
2022-08-03T16:14:32.576Z,1.60
2022-08-03T16:16:40.510Z,1.65
2022-08-03T16:18:42.750Z,1.63
2022-08-03T16:20:45.278Z,1.70
2022-08-03T16:22:48.580Z,1.83
2022-08-03T16:24:50.534Z,1.88
2022-08-03T16:26:52.159Z,2.28
2022-08-03T16:28:53.871Z,1.90
2022-08-03T16:30:55.550Z,1.95
2022-08-03T16:32:57.193Z,1.98
2022-08-03T16:34:59.158Z,1.60
2022-08-03T16:37:16.511Z,2.00
2022-08-03T16:39:22.686Z,1.85
2022-08-03T16:41:24.385Z,2.38
2022-08-03T16:43:26.123Z,1.80
2022-08-03T16:45:27.815Z,2.00
2022-08-03T16:47:29.491Z,1.85
2022-08-03T16:49:55.126Z,1.98
2022-08-03T16:51:53.178Z,1.80
2022-08-03T16:54:07.916Z,1.75
2022-08-03T16:56:14.027Z,1.80
2022-08-03T16:58:17.971Z,1.60
2022-08-03T17:00:33.939Z,1.83
2022-08-03T17:02:37.056Z,1.80
2022-08-03T17:04:40.362Z,1.60
2022-08-03T17:06:45.012Z,1.70
2022-08-03T17:08:55.485Z,2.05
2022-08-03T17:10:57.339Z,1.90
2022-08-03T17:12:59.176Z,2.00
2022-08-03T17:15:01.412Z,1.65
2022-08-03T17:17:08.619Z,1.67
2022-08-03T17:19:18.336Z,1.70
2022-08-03T17:21:29.410Z,1.90
2022-08-03T17:23:52.397Z,2.10
2022-08-03T17:26:02.110Z,1.80
2022-08-03T17:28:48.358Z,1.92
2022-08-03T17:30:48.171Z,1.52
2022-08-03T17:32:56.676Z,1.85
2022-08-03T17:34:59.119Z,1.70
2022-08-03T17:37:04.439Z,1.70
2022-08-03T17:39:06.793Z,1.80
2022-08-03T17:41:11.026Z,1.88
2022-08-03T17:45:52.423Z,1.80
2022-08-03T17:47:57.523Z,1.80
2022-08-03T17:49:59.685Z,1.92
2022-08-03T17:52:28.678Z,1.90
2022-08-03T17:55:56.822Z,1.67
2022-08-03T17:58:01.573Z,1.80
2022-08-03T18:00:27.701Z,1.77
2022-08-03T18:03:10.059Z,1.77
2022-08-03T18:05:16.277Z,1.80
2022-08-03T18:07:22.347Z,1.75
2022-08-03T18:10:04.987Z,2.22
2022-08-03T18:11:58.088Z,1.90
2022-08-03T18:16:37.703Z,2.00
2022-08-03T18:18:44.843Z,2.00
2022-08-03T18:20:51.366Z,1.80
2022-08-03T18:22:54.928Z,1.88
2022-08-03T18:24:59.093Z,1.67
2022-08-03T18:27:03.200Z,1.92
2022-08-03T18:29:05.043Z,1.90
2022-08-03T18:34:16.483Z,2.05
2022-08-03T18:36:02.956Z,2.15
2022-08-03T18:38:04.622Z,2.33
2022-08-03T18:40:12.877Z,1.90
2022-08-03T18:42:26.693Z,2.20
2022-08-03T18:47:18.639Z,2.00
2022-08-03T18:49:34.599Z,2.20
2022-08-03T18:51:43.370Z,2.33
2022-08-03T18:54:06.351Z,2.00
2022-08-03T18:56:19.064Z,2.28
2022-08-03T18:58:48.335Z,1.90
2022-08-03T19:02:00.545Z,2.13
2022-08-03T19:04:04.124Z,2.05
2022-08-03T19:06:15.902Z,2.05
2022-08-03T19:08:48.838Z,2.00
2022-08-03T19:10:57.888Z,1.80
2022-08-03T19:13:19.331Z,2.05
2022-08-03T19:15:41.286Z,2.30
2022-08-03T19:17:52.763Z,2.30
2022-08-03T19:19:57.387Z,2.08
2022-08-03T19:21:59.771Z,2.10
2022-08-03T19:24:09.500Z,1.70
2022-08-03T19:26:30.149Z,1.73
2022-08-03T19:28:34.522Z,2.13
2022-08-03T19:30:38.775Z,2.08
2022-08-03T19:32:41.668Z,2.10
2022-08-03T19:34:51.378Z,1.98
2022-08-03T19:36:54.690Z,1.90
2022-08-03T19:38:57.218Z,2.15
2022-08-03T19:41:03.643Z,2.20
2022-08-03T19:43:52.960Z,2.05
2022-08-03T19:46:05.958Z,1.90
2022-08-03T19:48:13.405Z,1.90
2022-08-03T19:50:15.966Z,2.10
2022-08-03T19:52:20.919Z,2.20
2022-08-03T19:54:32.173Z,2.20
2022-08-03T19:56:34.791Z,2.00
2022-08-03T19:58:37.359Z,2.20
2022-08-03T20:00:41.010Z,2.00
2022-08-03T20:02:51.160Z,2.10
2022-08-03T20:04:53.195Z,1.80
2022-08-03T20:06:58.467Z,2.00
2022-08-03T20:09:00.577Z,1.85
2022-08-03T20:11:02.622Z,1.98
2022-08-03T20:13:08.101Z,2.70
2022-08-03T20:15:10.697Z,2.30
2022-08-03T20:17:12.413Z,1.90
2022-08-03T20:19:22.773Z,2.10
2022-08-03T20:21:27.343Z,2.10
2022-08-03T20:23:37.483Z,1.98
2022-08-03T20:25:48.731Z,1.98
2022-08-03T20:28:13.857Z,2.20
2022-08-03T20:30:16.251Z,2.45
2022-08-03T20:32:24.805Z,2.25
2022-08-03T20:34:26.622Z,1.95
2022-08-03T20:36:28.993Z,2.20
2022-08-03T20:38:32.131Z,2.25
2022-08-03T20:40:33.857Z,2.10
2022-08-03T20:42:35.671Z,2.20
2022-08-03T20:44:37.449Z,2.13
2022-08-03T20:46:56.376Z,2.38
2022-08-03T20:49:03.897Z,2.00
2022-08-03T20:51:50.471Z,2.15
2022-08-03T20:54:00.308Z,2.33
2022-08-03T20:56:03.614Z,2.20
2022-08-03T20:58:05.323Z,2.13
2022-08-03T21:00:12.123Z,2.60
2022-08-03T21:02:13.972Z,2.30
2022-08-03T21:04:21.709Z,2.28
2022-08-03T21:06:27.766Z,2.33
2022-08-03T21:08:29.999Z,2.28
2022-08-03T21:10:33.347Z,2.53
2022-08-03T21:12:50.255Z,2.30
2022-08-03T21:12:54.882Z,1.70
2022-08-03T21:12:57.247Z,1.90
2022-08-03T21:12:58.149Z,1.83
2022-08-03T21:12:59.142Z,1.88
2022-08-03T21:15:06.975Z,2.58
2022-08-03T21:17:19.333Z,2.88
2022-08-03T21:19:34.316Z,2.35
2022-08-03T21:21:38.684Z,2.60
2022-08-03T21:23:49.063Z,2.30
2022-08-03T21:25:51.936Z,2.42
2022-08-03T21:27:54.970Z,2.13
2022-08-03T21:29:58.525Z,2.53
2022-08-03T21:32:01.473Z,2.72
2022-08-03T21:34:05.457Z,2.30
2022-08-03T21:36:07.469Z,2.38
2022-08-03T21:38:29.948Z,3.08
2022-08-03T21:40:32.114Z,2.95
2022-08-03T21:42:33.946Z,2.70
2022-08-03T21:44:35.636Z,2.40
2022-08-03T21:46:39.920Z,2.80
2022-08-03T21:48:41.922Z,3.20
2022-08-03T21:50:44.588Z,2.90
2022-08-03T21:52:48.210Z,2.78
2022-08-03T21:54:54.164Z,3.00
2022-08-03T21:57:03.074Z,2.53
2022-08-03T21:59:07.903Z,2.58
2022-08-03T22:01:10.925Z,2.72
2022-08-03T22:03:17.127Z,2.90
2022-08-03T22:05:20.049Z,2.50
2022-08-03T22:07:31.483Z,2.78
2022-08-03T22:09:35.320Z,2.83
2022-08-03T22:11:38.601Z,2.38
2022-08-03T22:13:43.590Z,2.75
2022-08-03T22:15:48.696Z,2.80
2022-08-03T22:17:55.621Z,2.47
2022-08-03T22:19:58.782Z,2.42
2022-08-03T22:22:04.617Z,2.80
2022-08-03T22:24:07.368Z,2.50
2022-08-03T22:26:14.169Z,2.70
2022-08-03T22:28:15.918Z,2.53
2022-08-03T22:30:19.269Z,2.60
2022-08-03T22:32:21.050Z,3.67
2022-08-03T22:34:26.685Z,2.60
2022-08-03T22:36:30.162Z,2.40
2022-08-03T22:38:33.094Z,2.67
2022-08-03T22:40:36.379Z,2.90
2022-08-03T22:42:40.304Z,2.75
2022-08-03T22:44:42.001Z,2.97
2022-08-03T22:46:44.721Z,2.70
2022-08-03T22:48:47.311Z,2.90
2022-08-03T22:50:49.360Z,2.80
2022-08-03T22:52:53.611Z,2.83
2022-08-03T22:54:56.373Z,2.85
2022-08-03T22:56:58.409Z,2.80
2022-08-03T22:59:00.037Z,3.00
2022-08-03T23:01:09.854Z,2.53
2022-08-03T23:03:12.167Z,2.80
2022-08-03T23:06:02.636Z,2.83
2022-08-03T23:07:45.784Z,2.40
2022-08-03T23:09:48.574Z,2.50
2022-08-03T23:11:53.213Z,2.75
2022-08-03T23:13:59.399Z,2.67
2022-08-03T23:16:04.537Z,2.60
2022-08-03T23:18:07.409Z,2.28
2022-08-03T23:20:09.634Z,2.50
2022-08-03T23:22:29.475Z,2.45
2022-08-03T23:24:36.295Z,3.10
2022-08-03T23:26:38.425Z,2.53
2022-08-03T23:28:42.262Z,2.53
2022-08-03T23:30:49.892Z,2.10
2022-08-03T23:32:54.731Z,2.53
2022-08-03T23:35:18.482Z,2.60
2022-08-03T23:37:20.741Z,2.40
2022-08-03T23:39:22.821Z,2.60
2022-08-03T23:41:24.727Z,2.67
2022-08-03T23:43:50.829Z,2.65
2022-08-03T23:45:49.686Z,2.60
2022-08-03T23:47:51.364Z,2.90
2022-08-03T23:49:53.655Z,2.70
2022-08-03T23:52:21.977Z,3.13
2022-08-03T23:54:58.461Z,2.60
2022-08-03T23:57:15.347Z,2.60
2022-08-03T23:59:48.712Z,2.80
